»·PEaware :: DAL3503 KJFK-KCVG

DAL3503 :: KJFK-KCVG

FLIGHT INFORMATION

Flight Status: Arrived
Operator:
Delta Air Lines
More flights by this operator :: More flights under this callsign
Pilot: Aaron E. (26217)
Aircraft: BOEING 737-800
(B738)
More flights by this aircraft type
Origin: KJFK Kennedy Intl
United States
Destination: KCVG Cincinnati/Northern Ky Intl
United States
More flights between these airports :: More routes between these airports
Route: KJFK DCT RBV J230 SAAME J6 EYTEE DCT COLNS GAVNN4 KCVG
File this flight plan on PilotEdge
Remarks:
Altitude:
(Current/Filed)
32,000ft
Speed:
(Current/Filed)
320kts
Departed: 12-Jul-20 04:29 AM
Arrived: 12-Jul-20 05:45 AM
Distance/Time
Traveled:
510nm/1:16
Distance/Time
To Go:
Arrived

Flight Plot

Page will automatically refresh every two minutes.

Flight plan parsing failed; only flown route is shown


Map Options




Map Legend


Flown Route
Filed Route
Departure Airport
Arrival Airport
Navaid (VOR, NDB)
Fix

Horizontal Profiles

Position Reports

Time Latitude Longitude Heading Altitude Ground
Speed
12-Jul-20 04:27 40.048628 -76.302220 260 31865ft 441kts
12-Jul-20 04:28 40.022190 -76.457896 251 31858ft 437kts
12-Jul-20 04:29 39.974058 -76.603079 240 31857ft 435kts
12-Jul-20 04:31 39.851603 -76.869384 238 31871ft 437kts
12-Jul-20 04:32 39.819741 -76.937532 238 31873ft 441kts
12-Jul-20 04:33 39.788486 -77.004249 238 31880ft 441kts
12-Jul-20 04:34 39.723643 -77.142227 238 31887ft 447kts
12-Jul-20 04:35 39.659140 -77.278448 238 31882ft 442kts
12-Jul-20 04:36 39.594211 -77.414454 238 31883ft 443kts
12-Jul-20 04:37 39.529590 -77.549888 238 31882ft 443kts
12-Jul-20 04:38 39.464634 -77.685607 237 31885ft 443kts
12-Jul-20 04:39 39.399534 -77.820996 238 31883ft 443kts
12-Jul-20 04:40 39.341328 -77.961052 242 31882ft 443kts
12-Jul-20 04:41 39.284971 -78.102467 242 31892ft 443kts
12-Jul-20 04:42 39.229856 -78.240724 242 31899ft 444kts
12-Jul-20 04:43 39.173335 -78.382030 242 31900ft 443kts
12-Jul-20 04:44 39.116749 -78.522908 242 31907ft 443kts
12-Jul-20 04:45 39.059943 -78.663706 241 31924ft 443kts
12-Jul-20 04:46 39.029124 -78.739720 241 31926ft 443kts
12-Jul-20 04:47 39.029124 -78.739720 241 31926ft 443kts
12-Jul-20 04:48 39.029124 -78.739720 241 31926ft 443kts
12-Jul-20 04:49 39.024774 -78.750435 241 31921ft 444kts
12-Jul-20 04:50 38.967613 -78.890585 241 31925ft 437kts
12-Jul-20 04:51 38.910534 -79.027861 242 31932ft 437kts
12-Jul-20 04:52 38.857608 -79.169071 254 31943ft 444kts
12-Jul-20 04:53 38.841479 -79.327664 265 31960ft 448kts
12-Jul-20 04:54 38.835864 -79.486753 267 31982ft 447kts
12-Jul-20 04:55 38.831978 -79.646234 267 31981ft 448kts
12-Jul-20 04:56 38.828344 -79.805246 267 31981ft 447kts
12-Jul-20 04:57 38.824630 -79.964939 267 31981ft 447kts
12-Jul-20 04:58 38.820775 -80.123972 267 31981ft 447kts
12-Jul-20 04:59 38.815872 -80.283635 267 31986ft 447kts
12-Jul-20 05:00 38.811250 -80.442960 267 31992ft 447kts
12-Jul-20 05:01 38.806653 -80.601968 267 31997ft 446kts
12-Jul-20 05:02 38.801877 -80.760778 266 31972ft 447kts
12-Jul-20 05:03 38.796907 -80.919899 267 31937ft 447kts
12-Jul-20 05:04 38.791766 -81.078574 268 31936ft 442kts
12-Jul-20 05:05 38.786506 -81.235205 268 31938ft 441kts
12-Jul-20 05:06 38.781017 -81.392380 268 31939ft 443kts
12-Jul-20 05:07 38.775318 -81.550531 268 31941ft 443kts
12-Jul-20 05:08 38.769394 -81.707607 268 31945ft 441kts
12-Jul-20 05:09 38.763255 -81.864927 268 31949ft 442kts
12-Jul-20 05:10 38.747711 -82.020639 262 31939ft 443kts
12-Jul-20 05:11 38.714788 -82.173402 254 31937ft 446kts
12-Jul-20 05:12 38.675526 -82.323378 253 31944ft 445kts
12-Jul-20 05:13 38.635592 -82.473707 253 31950ft 447kts
12-Jul-20 05:14 38.595163 -82.623897 254 31952ft 445kts
12-Jul-20 05:15 38.589804 -82.762706 274 31949ft 441kts
12-Jul-20 05:16 38.598650 -82.919103 274 31946ft 439kts
12-Jul-20 05:17 38.607361 -83.072644 274 31945ft 431kts
12-Jul-20 05:18 38.616151 -83.226526 275 31948ft 436kts
12-Jul-20 05:19 38.624949 -83.380374 275 31953ft 433kts
12-Jul-20 05:20 38.633656 -83.533407 275 31963ft 432kts
12-Jul-20 05:21 38.641954 -83.678808 275 31962ft 375kts
12-Jul-20 05:22 38.649293 -83.808736 275 31967ft 374kts
12-Jul-20 05:23 38.656737 -83.940089 275 30417ft 368kts
12-Jul-20 05:24 38.689570 -84.062077 298 28166ft 365kts
12-Jul-20 05:25 38.743179 -84.170826 301 26028ft 359kts
12-Jul-20 05:26 38.797612 -84.276755 301 23896ft 353kts
12-Jul-20 05:27 38.851210 -84.380776 301 21792ft 346kts
12-Jul-20 05:28 38.903599 -84.482547 303 19726ft 339kts
12-Jul-20 05:29 38.986098 -84.538375 351 17514ft 357kts
12-Jul-20 05:30 39.084458 -84.540580 355 15663ft 348kts
12-Jul-20 05:31 39.179751 -84.540968 355 13931ft 336kts
12-Jul-20 05:32 39.271575 -84.541216 355 12265ft 325kts
12-Jul-20 05:33 39.360149 -84.541478 355 10656ft 315kts
12-Jul-20 05:34 39.443566 -84.532609 33 9865ft 292kts
12-Jul-20 05:35 39.433131 -84.448700 168 9322ft 286kts
12-Jul-20 05:36 39.363985 -84.477680 211 8324ft 263kts
12-Jul-20 05:37 39.298609 -84.519171 195 7289ft 265kts
12-Jul-20 05:38 39.224291 -84.510161 176 6305ft 268kts
12-Jul-20 05:39 39.151404 -84.497723 176 5243ft 260kts
12-Jul-20 05:40 39.080677 -84.486889 187 4113ft 253kts
12-Jul-20 05:41 39.044140 -84.551153 275 2437ft 251kts
12-Jul-20 05:42 39.046165 -84.628008 270 1301ft 191kts
12-Jul-20 05:44 39.046244 -84.672278 263 870ft 72kts
12-Jul-20 05:45 39.047407 -84.678926 87 875ft 4kts
12-Jul-20 05:46 39.047426 -84.676743 90 879ft 15kts
12-Jul-20 05:47 39.048099 -84.670324 57 873ft 16kts
12-Jul-20 05:48 39.049103 -84.663618 88 868ft 21kts
12-Jul-20 05:49 39.048992 -84.656652 43 878ft 7kts
12-Jul-20 05:50 39.049385 -84.656489 1 879ft 1kts
12-Jul-20 05:51 39.049563 -84.656478 5 879ft 0kts
12-Jul-20 05:52 39.049563 -84.656478 5 879ft 0kts
12-Jul-20 05:53 39.049563 -84.656478 5 879ft 0kts

Navigation Log

Ident Type
Flight plan parsing failed, navigation log unavailable